createdAt,value
2023-03-19T00:02:17.151Z,1.98
2023-03-19T00:04:46.157Z,2.17
2023-03-19T00:07:13.937Z,2.80
2023-03-19T00:09:41.100Z,2.20
2023-03-19T00:12:08.573Z,2.67
2023-03-19T00:14:36.097Z,2.40
2023-03-19T00:17:02.933Z,2.55
2023-03-19T00:19:30.368Z,2.40
2023-03-19T00:21:57.318Z,2.83
2023-03-19T00:24:24.808Z,3.28
2023-03-19T00:26:51.777Z,2.90
2023-03-19T00:29:18.655Z,2.70
2023-03-19T00:31:46.419Z,2.85
2023-03-19T00:34:14.303Z,2.97
2023-03-19T00:36:41.160Z,2.83
2023-03-19T00:39:08.889Z,3.53
2023-03-19T00:41:35.792Z,2.80
2023-03-19T00:44:03.923Z,3.00
2023-03-19T00:46:30.981Z,2.90
2023-03-19T00:48:58.839Z,3.53
2023-03-19T00:51:25.957Z,2.85
2023-03-19T00:53:53.985Z,3.58
2023-03-19T00:56:21.248Z,3.05
2023-03-19T00:58:48.178Z,3.13
2023-03-19T01:01:17.360Z,2.92
2023-03-19T01:03:45.896Z,2.70
2023-03-19T01:06:13.293Z,2.88
2023-03-19T01:08:40.603Z,2.90
2023-03-19T01:11:10.476Z,3.00
2023-03-19T01:13:38.721Z,2.72
2023-03-19T01:16:06.664Z,2.97
2023-03-19T01:18:33.840Z,2.70
2023-03-19T01:21:01.421Z,2.58
2023-03-19T01:23:30.744Z,2.85
2023-03-19T01:25:58.169Z,2.95
2023-03-19T01:28:26.775Z,3.05
2023-03-19T01:30:53.797Z,3.15
2023-03-19T01:33:39.274Z,2.60
2023-03-19T01:36:13.976Z,3.13
2023-03-19T01:39:01.620Z,3.05
2023-03-19T01:41:28.703Z,3.13
2023-03-19T01:44:02.164Z,3.42
2023-03-19T01:46:39.967Z,3.22
2023-03-19T01:49:33.283Z,3.80
2023-03-19T01:52:18.187Z,3.30
2023-03-19T01:55:11.108Z,3.50
2023-03-19T01:58:08.206Z,3.47
2023-03-19T02:00:41.960Z,3.67
2023-03-19T02:03:09.924Z,3.35
2023-03-19T02:05:56.457Z,3.70
2023-03-19T02:08:24.702Z,3.83
2023-03-19T02:10:55.853Z,3.53
2023-03-19T02:13:23.569Z,3.65
2023-03-19T02:15:51.863Z,3.90
2023-03-19T02:18:19.930Z,3.80
2023-03-19T02:20:50.792Z,3.50
2023-03-19T02:23:23.936Z,3.78
2023-03-19T02:26:01.467Z,3.53
2023-03-19T02:28:29.578Z,3.63
2023-03-19T02:30:56.548Z,3.90
2023-03-19T02:33:23.477Z,3.50
2023-03-19T02:35:52.166Z,4.13
2023-03-19T02:38:22.886Z,3.85
2023-03-19T02:40:55.150Z,4.10
2023-03-19T02:45:51.774Z,4.18
2023-03-19T02:48:18.753Z,3.97
2023-03-19T02:50:46.252Z,3.70
2023-03-19T02:53:13.125Z,4.20
2023-03-19T02:55:39.964Z,4.05
2023-03-19T02:58:07.281Z,4.60
2023-03-19T03:00:34.707Z,4.43
2023-03-19T03:03:02.433Z,4.68
2023-03-19T03:05:29.368Z,4.85
2023-03-19T03:07:56.348Z,3.97
2023-03-19T03:10:23.388Z,3.97
2023-03-19T03:12:50.330Z,4.47
2023-03-19T03:15:17.427Z,4.47
2023-03-19T03:17:45.564Z,4.95
2023-03-19T03:20:14.824Z,4.50
2023-03-19T03:22:42.163Z,4.35
2023-03-19T03:25:10.453Z,5.45
2023-03-19T03:27:38.408Z,4.80
2023-03-19T03:30:08.119Z,5.80
2023-03-19T03:32:38.540Z,6.10
2023-03-19T03:35:08.352Z,5.60
2023-03-19T03:37:36.670Z,5.97
2023-03-19T03:40:08.179Z,5.95
2023-03-19T03:42:37.492Z,5.97
2023-03-19T03:45:07.358Z,6.57
2023-03-19T03:47:34.461Z,6.25
2023-03-19T03:50:01.927Z,6.18
2023-03-19T03:52:31.446Z,6.22
2023-03-19T03:54:58.594Z,6.15
2023-03-19T03:57:26.130Z,6.15
2023-03-19T03:59:54.114Z,6.32
2023-03-19T04:02:21.926Z,6.63
2023-03-19T04:04:49.151Z,7.18
2023-03-19T04:07:16.286Z,7.05
2023-03-19T04:09:49.220Z,7.05
2023-03-19T04:12:16.117Z,8.30
2023-03-19T04:14:43.130Z,7.68
2023-03-19T04:17:10.300Z,7.57
2023-03-19T04:19:38.589Z,8.20
2023-03-19T04:22:07.680Z,8.30
2023-03-19T04:24:35.195Z,8.40
2023-03-19T04:27:02.771Z,8.93
2023-03-19T04:29:29.990Z,8.30
2023-03-19T04:31:57.057Z,8.93
2023-03-19T04:34:24.900Z,9.35
2023-03-19T04:36:52.069Z,9.82
2023-03-19T04:39:19.650Z,9.73
2023-03-19T04:41:46.880Z,9.93
2023-03-19T04:44:27.073Z,10.35
2023-03-19T04:46:54.652Z,11.05
2023-03-19T04:49:22.227Z,10.10
2023-03-19T04:51:50.652Z,10.50
2023-03-19T04:54:17.781Z,10.77
2023-03-19T04:56:44.747Z,10.20
2023-03-19T04:59:11.772Z,9.50
2023-03-19T05:01:38.754Z,9.68
2023-03-19T05:04:08.883Z,11.77
2023-03-19T05:06:38.251Z,10.60
2023-03-19T05:09:06.623Z,10.02
2023-03-19T05:11:33.999Z,10.15
2023-03-19T05:14:06.377Z,10.02
2023-03-19T05:16:45.657Z,10.73
2023-03-19T05:19:12.491Z,10.02
2023-03-19T05:21:40.835Z,10.98
2023-03-19T05:24:07.853Z,10.13
2023-03-19T05:26:37.623Z,10.55
2023-03-19T05:29:30.770Z,10.00
2023-03-19T05:32:16.232Z,10.82
2023-03-19T05:34:44.574Z,10.00
2023-03-19T05:37:12.094Z,10.27
2023-03-19T05:39:40.323Z,11.13
2023-03-19T05:42:09.351Z,10.85
2023-03-19T05:44:36.780Z,11.40
2023-03-19T05:47:39.348Z,11.20
2023-03-19T05:50:07.996Z,11.18
2023-03-19T05:52:35.703Z,12.80
2023-03-19T05:55:02.700Z,12.00
2023-03-19T05:57:43.212Z,12.27
2023-03-19T06:00:17.813Z,13.57
2023-03-19T06:02:46.973Z,12.38
2023-03-19T06:05:36.612Z,12.50
2023-03-19T06:08:12.155Z,12.63
2023-03-19T06:11:08.756Z,13.35
2023-03-19T06:13:36.883Z,13.82
2023-03-19T06:16:07.874Z,15.02
2023-03-19T06:18:38.641Z,14.70
2023-03-19T06:21:11.793Z,14.68
2023-03-19T06:23:39.102Z,14.15
2023-03-19T06:26:07.585Z,14.10
2023-03-19T06:28:42.561Z,14.70
2023-03-19T06:31:09.716Z,14.65
2023-03-19T06:33:56.346Z,14.45
2023-03-19T06:36:27.133Z,15.05
2023-03-19T06:38:54.125Z,15.43
2023-03-19T06:41:21.353Z,15.30
2023-03-19T06:43:49.333Z,14.70
2023-03-19T06:46:16.325Z,14.52
2023-03-19T06:48:43.229Z,15.63
2023-03-19T06:51:10.702Z,15.35
2023-03-19T06:53:37.639Z,17.33
2023-03-19T06:56:04.732Z,19.55
2023-03-19T06:58:31.688Z,18.38
2023-03-19T07:00:59.696Z,19.02
2023-03-19T07:03:26.558Z,16.90
2023-03-19T07:05:53.437Z,18.58
2023-03-19T07:08:20.588Z,18.13
2023-03-19T07:10:47.614Z,18.90
2023-03-19T07:13:14.716Z,17.30
2023-03-19T07:15:41.623Z,18.45
2023-03-19T07:18:08.452Z,18.50
2023-03-19T07:20:35.900Z,16.92
2023-03-19T07:23:03.360Z,16.50
2023-03-19T07:25:30.246Z,17.80
2023-03-19T07:27:57.146Z,17.45
2023-03-19T07:30:24.399Z,18.10
2023-03-19T07:32:51.496Z,20.00
2023-03-19T07:35:18.403Z,18.48
2023-03-19T07:37:45.405Z,23.67
2023-03-19T07:40:12.549Z,25.40
2023-03-19T07:42:39.519Z,24.90
2023-03-19T07:45:07.165Z,25.80
2023-03-19T07:47:34.012Z,24.98
2023-03-19T07:50:01.114Z,23.77
2023-03-19T07:52:28.113Z,21.95
2023-03-19T07:54:55.643Z,21.83
2023-03-19T07:57:22.644Z,20.05
2023-03-19T07:59:49.532Z,18.95
2023-03-19T08:02:16.793Z,20.98
2023-03-19T08:04:43.852Z,22.33
2023-03-19T08:07:12.697Z,21.25
2023-03-19T08:09:40.678Z,21.80
2023-03-19T08:12:08.376Z,21.38
2023-03-19T08:14:35.699Z,21.20
2023-03-19T08:17:02.675Z,21.65
2023-03-19T08:19:29.692Z,23.15
2023-03-19T08:21:56.656Z,21.73
2023-03-19T08:24:23.511Z,22.50
2023-03-19T08:26:50.789Z,22.30
2023-03-19T08:29:19.012Z,20.70
2023-03-19T08:31:46.395Z,20.92
2023-03-19T08:34:13.324Z,20.60
2023-03-19T08:36:40.308Z,18.48
2023-03-19T08:39:07.157Z,19.60
2023-03-19T08:41:34.131Z,19.73
2023-03-19T08:44:01.019Z,18.38
2023-03-19T08:46:29.284Z,18.65
2023-03-19T08:48:56.349Z,17.08
2023-03-19T08:51:25.916Z,18.58
2023-03-19T08:53:53.272Z,18.70
2023-03-19T08:56:20.417Z,18.85
2023-03-19T08:58:47.392Z,18.63
2023-03-19T09:01:15.304Z,20.10
2023-03-19T09:03:43.798Z,20.45
2023-03-19T09:06:11.983Z,20.27
2023-03-19T09:08:38.980Z,20.10
2023-03-19T09:11:06.526Z,18.88
2023-03-19T09:13:34.954Z,19.08
2023-03-19T09:16:01.923Z,19.95
2023-03-19T09:18:29.364Z,20.45
2023-03-19T09:20:56.302Z,19.67
2023-03-19T09:23:23.926Z,20.00
2023-03-19T09:26:06.003Z,19.95
2023-03-19T09:28:45.996Z,20.98
2023-03-19T09:31:12.950Z,20.80
2023-03-19T09:33:39.936Z,19.35
2023-03-19T09:36:07.115Z,20.15
2023-03-19T09:38:34.684Z,19.92
2023-03-19T09:41:15.798Z,20.15
2023-03-19T09:43:45.769Z,20.30
2023-03-19T09:46:22.727Z,20.75
2023-03-19T09:48:50.521Z,20.35
2023-03-19T09:51:26.190Z,20.52
2023-03-19T09:54:01.773Z,20.13
2023-03-19T09:56:28.711Z,21.88
2023-03-19T09:58:55.746Z,21.63
2023-03-19T10:01:27.016Z,20.35
2023-03-19T10:04:09.152Z,21.20
2023-03-19T10:06:40.252Z,20.95
2023-03-19T10:09:35.546Z,22.13
2023-03-19T10:12:37.489Z,19.58
2023-03-19T10:15:27.278Z,19.85
2023-03-19T10:17:58.691Z,20.42
2023-03-19T10:20:32.938Z,20.20
2023-03-19T10:23:13.938Z,20.17
2023-03-19T10:25:43.054Z,21.40
2023-03-19T10:28:19.676Z,21.42
2023-03-19T10:31:09.839Z,21.48
2023-03-19T10:33:44.665Z,24.05
2023-03-19T10:36:14.892Z,23.00
2023-03-19T10:38:44.368Z,22.27
2023-03-19T10:41:30.064Z,23.17
2023-03-19T10:44:21.551Z,21.80
2023-03-19T10:46:48.356Z,21.98
2023-03-19T10:49:16.370Z,24.45
2023-03-19T10:51:46.216Z,24.83
2023-03-19T10:54:25.228Z,25.38
2023-03-19T10:56:57.193Z,23.38
2023-03-19T10:59:25.563Z,22.00
2023-03-19T11:01:58.142Z,23.40
2023-03-19T11:04:27.808Z,21.70
2023-03-19T11:07:10.280Z,23.85
2023-03-19T11:09:39.668Z,22.98
2023-03-19T11:12:08.539Z,22.42
2023-03-19T11:14:39.076Z,23.40
2023-03-19T11:17:18.244Z,19.60
2023-03-19T11:19:54.100Z,19.95
2023-03-19T11:22:27.500Z,17.30
2023-03-19T11:24:57.273Z,18.63
2023-03-19T11:27:37.151Z,19.38
2023-03-19T11:30:13.074Z,17.75
2023-03-19T11:33:33.583Z,18.73
2023-03-19T11:36:12.948Z,18.75
2023-03-19T11:38:43.012Z,18.88
2023-03-19T11:41:58.058Z,20.10
2023-03-19T11:44:24.967Z,20.50
2023-03-19T11:47:06.840Z,21.35
2023-03-19T11:50:04.559Z,20.27
2023-03-19T11:52:41.658Z,19.55
2023-03-19T11:55:25.033Z,19.70
2023-03-19T11:58:13.358Z,20.00
2023-03-19T12:00:52.700Z,21.02
2023-03-19T12:03:28.763Z,22.58
2023-03-19T12:06:07.338Z,21.48
2023-03-19T12:08:45.439Z,23.77
2023-03-19T12:11:21.249Z,24.27
2023-03-19T12:13:53.882Z,24.02
2023-03-19T12:16:46.543Z,22.00
2023-03-19T12:19:32.953Z,23.02
2023-03-19T12:22:07.015Z,20.27
2023-03-19T12:25:03.587Z,19.92
2023-03-19T12:27:48.023Z,21.30
2023-03-19T12:30:33.306Z,19.95
2023-03-19T12:33:26.247Z,18.95
2023-03-19T12:35:56.336Z,20.25
2023-03-19T12:38:48.538Z,20.52
2023-03-19T12:41:24.761Z,21.80
2023-03-19T12:44:01.234Z,21.23
2023-03-19T12:46:33.575Z,22.60
2023-03-19T12:49:08.140Z,19.20
2023-03-19T12:51:39.226Z,18.50
2023-03-19T12:54:13.526Z,18.38
2023-03-19T12:56:49.466Z,18.85
2023-03-19T12:59:34.449Z,18.05
2023-03-19T13:02:30.683Z,17.92
2023-03-19T13:05:32.876Z,16.70
2023-03-19T13:08:16.872Z,15.48
2023-03-19T13:10:43.707Z,16.58
2023-03-19T13:13:39.234Z,16.85
2023-03-19T13:16:19.679Z,15.48
2023-03-19T13:19:02.429Z,13.27
2023-03-19T13:21:33.845Z,12.52
2023-03-19T13:24:23.516Z,13.40
2023-03-19T13:26:52.643Z,12.80
2023-03-19T13:29:25.239Z,11.48
2023-03-19T13:31:53.067Z,13.15
2023-03-19T13:34:28.758Z,14.68
2023-03-19T13:37:07.015Z,14.45
2023-03-19T13:39:36.034Z,15.25
2023-03-19T13:42:24.219Z,14.93
2023-03-19T13:45:25.257Z,12.75
2023-03-19T13:47:54.712Z,13.18
2023-03-19T13:50:49.045Z,12.43
2023-03-19T13:53:32.348Z,13.13
2023-03-19T13:56:00.701Z,14.13
2023-03-19T13:58:47.533Z,13.80
2023-03-19T14:01:26.563Z,13.55
2023-03-19T14:03:58.632Z,12.02
2023-03-19T14:09:31.347Z,12.02
2023-03-19T14:12:12.334Z,12.73
2023-03-19T14:15:02.992Z,12.90
2023-03-19T14:17:53.685Z,14.35
2023-03-19T14:20:33.634Z,12.93
2023-03-19T14:23:23.446Z,12.38
2023-03-19T14:26:23.077Z,11.95
2023-03-19T14:28:52.897Z,12.60
2023-03-19T14:31:45.110Z,12.07
2023-03-19T14:34:12.010Z,13.15
2023-03-19T14:36:45.932Z,11.70
2023-03-19T14:39:21.673Z,12.63
2023-03-19T14:41:54.378Z,12.80
2023-03-19T14:44:24.504Z,13.43
2023-03-19T14:47:19.052Z,12.18
2023-03-19T14:50:19.616Z,12.60
2023-03-19T14:53:22.501Z,13.48
2023-03-19T14:55:52.298Z,13.10
2023-03-19T14:58:22.705Z,12.98
2023-03-19T15:00:51.944Z,12.68
2023-03-19T15:03:39.374Z,12.90
2023-03-19T15:06:12.021Z,12.85
2023-03-19T15:08:40.845Z,11.70
2023-03-19T15:11:14.318Z,11.20
2023-03-19T15:13:50.091Z,12.40
2023-03-19T15:16:38.457Z,12.48
2023-03-19T15:19:12.208Z,12.23
2023-03-19T15:21:39.800Z,11.75
2023-03-19T15:24:13.219Z,11.70
2023-03-19T15:26:40.361Z,10.80
2023-03-19T15:29:12.084Z,11.20
2023-03-19T15:34:27.810Z,10.98
2023-03-19T15:37:04.632Z,11.95
2023-03-19T15:39:36.015Z,11.73
2023-03-19T15:42:04.998Z,12.68
2023-03-19T15:44:39.729Z,11.77
2023-03-19T15:47:11.499Z,12.32
2023-03-19T15:49:42.199Z,10.65
2023-03-19T15:52:15.957Z,9.63
2023-03-19T15:54:43.157Z,11.18
2023-03-19T15:57:13.106Z,10.25
2023-03-19T15:59:40.303Z,10.18
2023-03-19T16:02:29.972Z,10.45
2023-03-19T16:05:21.059Z,11.80
2023-03-19T16:07:45.116Z,10.55
2023-03-19T16:10:35.179Z,11.52
2023-03-19T16:13:05.619Z,11.30
2023-03-19T16:15:47.247Z,11.52
2023-03-19T16:18:17.290Z,10.20
2023-03-19T16:21:16.004Z,11.95
2023-03-19T16:23:52.783Z,10.73
2023-03-19T16:26:34.062Z,12.20
2023-03-19T16:29:20.509Z,11.30
2023-03-19T16:31:52.894Z,12.88
2023-03-19T16:34:40.599Z,12.35
2023-03-19T16:37:32.781Z,11.75
2023-03-19T16:40:21.624Z,11.38
2023-03-19T16:42:50.917Z,11.23
2023-03-19T16:45:20.795Z,12.73
2023-03-19T16:47:56.769Z,13.05
2023-03-19T16:50:47.619Z,11.90
2023-03-19T16:53:24.361Z,13.27
2023-03-19T16:55:53.093Z,12.90
2023-03-19T16:58:42.664Z,14.32
2023-03-19T17:01:23.039Z,16.02
2023-03-19T17:03:50.691Z,13.95
2023-03-19T17:06:19.189Z,14.63
2023-03-19T17:08:46.155Z,16.38
2023-03-19T17:11:30.979Z,16.83
2023-03-19T17:13:59.258Z,17.80
2023-03-19T17:16:27.433Z,18.85
2023-03-19T17:18:54.809Z,17.10
2023-03-19T17:21:26.138Z,15.60
2023-03-19T17:23:53.944Z,16.67
2023-03-19T17:26:27.833Z,18.05
2023-03-19T17:28:56.346Z,18.38
2023-03-19T17:31:26.674Z,19.30
2023-03-19T17:34:06.928Z,19.52
2023-03-19T17:36:34.050Z,19.48
2023-03-19T17:39:00.864Z,20.85
2023-03-19T17:41:30.344Z,20.00
2023-03-19T17:43:57.215Z,21.13
2023-03-19T17:46:26.199Z,22.10
2023-03-19T17:48:53.912Z,21.48
2023-03-19T17:51:23.302Z,24.85
2023-03-19T17:53:55.254Z,23.20
2023-03-19T17:56:27.875Z,21.85
2023-03-19T17:58:54.715Z,21.88
2023-03-19T18:01:25.725Z,22.98
2023-03-19T18:03:55.267Z,21.20
2023-03-19T18:06:30.829Z,20.90
2023-03-19T18:08:57.723Z,22.80
2023-03-19T18:11:24.551Z,22.20
2023-03-19T18:13:51.517Z,21.05
2023-03-19T18:16:30.608Z,20.52
2023-03-19T18:19:01.057Z,20.38
2023-03-19T18:21:29.266Z,21.77
2023-03-19T18:23:57.366Z,22.83
2023-03-19T18:26:25.304Z,20.98
2023-03-19T18:28:52.258Z,21.25
2023-03-19T18:31:23.244Z,20.88
2023-03-19T18:33:54.852Z,21.45
2023-03-19T18:36:25.703Z,21.35
2023-03-19T18:38:55.133Z,21.27
2023-03-19T18:41:24.213Z,19.55
2023-03-19T18:44:07.123Z,21.23
2023-03-19T18:46:35.766Z,21.40
2023-03-19T18:49:06.317Z,21.45
2023-03-19T18:51:33.186Z,22.83
2023-03-19T18:54:00.479Z,22.70
2023-03-19T18:56:32.951Z,22.42
2023-03-19T18:59:00.822Z,21.92
2023-03-19T19:01:28.334Z,21.23
2023-03-19T19:03:55.579Z,21.90
2023-03-19T19:06:44.085Z,23.10
2023-03-19T19:09:13.587Z,23.10
2023-03-19T19:11:41.788Z,22.50
2023-03-19T19:14:20.368Z,22.92
2023-03-19T19:16:48.049Z,21.10
2023-03-19T19:19:20.242Z,21.95
2023-03-19T19:24:14.969Z,20.10
2023-03-19T19:26:44.125Z,20.65
2023-03-19T19:29:16.982Z,21.88
2023-03-19T19:31:43.860Z,21.30
2023-03-19T19:34:15.158Z,18.45
2023-03-19T19:36:42.408Z,19.60
2023-03-19T19:39:09.952Z,19.83
2023-03-19T19:41:38.807Z,19.27
2023-03-19T19:44:06.537Z,20.00
2023-03-19T19:46:33.461Z,19.42
2023-03-19T19:49:00.440Z,16.70
2023-03-19T19:51:29.462Z,17.30
2023-03-19T19:53:57.512Z,18.45
2023-03-19T19:56:26.662Z,18.67
2023-03-19T19:58:55.378Z,19.88
2023-03-19T20:01:25.057Z,20.05
2023-03-19T20:03:52.557Z,19.48
2023-03-19T20:06:19.756Z,18.83
2023-03-19T20:08:49.354Z,18.27
2023-03-19T20:11:22.232Z,17.58
2023-03-19T20:13:54.188Z,17.13
2023-03-19T20:16:23.855Z,15.65
2023-03-19T20:18:53.709Z,13.15
2023-03-19T20:21:21.538Z,12.95
2023-03-19T20:23:52.818Z,15.88
2023-03-19T20:26:22.457Z,14.60
2023-03-19T20:28:50.624Z,15.23
2023-03-19T20:31:27.984Z,15.27
2023-03-19T20:33:54.874Z,13.38
2023-03-19T20:36:22.038Z,14.88
2023-03-19T20:38:49.231Z,14.57
2023-03-19T20:41:24.373Z,14.98
2023-03-19T20:43:52.061Z,14.73
2023-03-19T20:46:20.989Z,15.05
2023-03-19T20:48:48.094Z,15.27
2023-03-19T20:51:24.814Z,13.52
2023-03-19T20:53:52.771Z,14.98
2023-03-19T20:56:22.580Z,13.70
2023-03-19T20:58:49.873Z,14.38
2023-03-19T21:01:17.906Z,14.93
2023-03-19T21:03:44.888Z,15.73
2023-03-19T21:06:20.906Z,17.77
2023-03-19T21:09:01.939Z,17.48
2023-03-19T21:11:40.899Z,16.98
2023-03-19T21:14:15.952Z,18.10
2023-03-19T21:16:42.857Z,18.85
2023-03-19T21:19:09.722Z,16.85
2023-03-19T21:21:38.828Z,15.50
2023-03-19T21:24:15.505Z,17.83
2023-03-19T21:26:43.681Z,15.85
2023-03-19T21:29:28.840Z,17.88
2023-03-19T21:31:56.760Z,14.43
2023-03-19T21:34:23.964Z,16.10
2023-03-19T21:36:50.953Z,14.55
2023-03-19T21:39:18.049Z,14.82
2023-03-19T21:41:46.679Z,14.45
2023-03-19T21:44:16.589Z,11.98
2023-03-19T21:46:46.535Z,14.02
2023-03-19T21:49:14.078Z,12.07
2023-03-19T21:51:42.779Z,11.98
2023-03-19T21:54:09.780Z,10.73
2023-03-19T21:56:41.953Z,13.02
2023-03-19T22:01:43.351Z,12.07
2023-03-19T22:04:10.845Z,11.40
2023-03-19T22:06:38.937Z,12.60
2023-03-19T22:09:06.381Z,11.88
2023-03-19T22:11:36.349Z,11.65
2023-03-19T22:14:15.863Z,12.13
2023-03-19T22:16:42.838Z,11.98
2023-03-19T22:19:14.511Z,11.32
2023-03-19T22:21:41.555Z,11.73
2023-03-19T22:24:08.478Z,11.20
2023-03-19T22:26:40.838Z,10.48
2023-03-19T22:29:24.514Z,10.13
2023-03-19T22:31:53.136Z,10.02
2023-03-19T22:34:22.641Z,10.93
2023-03-19T22:36:49.999Z,10.30
2023-03-19T22:39:17.277Z,9.68
2023-03-19T22:41:47.829Z,9.65
2023-03-19T22:44:28.638Z,9.60
2023-03-19T22:46:58.733Z,9.60
2023-03-19T22:49:26.413Z,9.23
2023-03-19T22:51:53.259Z,9.00
2023-03-19T22:54:20.318Z,8.70
2023-03-19T22:56:47.183Z,8.40
2023-03-19T22:59:14.134Z,8.38
2023-03-19T23:01:46.678Z,8.80
2023-03-19T23:04:19.657Z,9.20
2023-03-19T23:06:47.013Z,9.02
2023-03-19T23:09:23.047Z,9.32
2023-03-19T23:11:50.354Z,9.13
2023-03-19T23:14:28.894Z,9.70
2023-03-19T23:17:02.092Z,9.32
2023-03-19T23:21:59.023Z,9.88
2023-03-19T23:24:26.595Z,9.57
2023-03-19T23:26:55.959Z,10.48
2023-03-19T23:29:26.957Z,10.75
2023-03-19T23:31:53.898Z,10.55
2023-03-19T23:34:22.131Z,10.27
2023-03-19T23:36:48.968Z,10.23
2023-03-19T23:39:16.392Z,10.73
2023-03-19T23:41:49.710Z,10.88
2023-03-19T23:44:19.396Z,10.55
2023-03-19T23:46:49.288Z,9.48
2023-03-19T23:49:24.112Z,9.20
2023-03-19T23:51:51.563Z,8.85
2023-03-19T23:54:37.838Z,9.88
2023-03-19T23:57:10.566Z,9.63
2023-03-19T23:59:39.583Z,7.90
